This is the latest recevied weather packets stored in our database for station/object SQ5DN-4. If no packets are shown the sender has not sent any weather packets the latest 10 day(s).
| Time | Temp. | Humidity | Pressure | Rain* | Wind** | Luminosity | Snow |
|---|---|---|---|---|---|---|---|
| 1777617612 | 15° C | 45% | 1022 hPa | - | - | - | - |
| 1777617056 | 15° C | 47% | 1022 hPa | - | - | - | - |
| 1777616492 | 13.33° C | 49% | 1022 hPa | - | - | - | - |
| 1777615972 | 13.33° C | 48% | 1022 hPa | - | - | - | - |
| 1777615442 | 12.22° C | 51% | 1022 hPa | - | - | - | - |
| 1777614887 | 12.78° C | 51% | 1022 hPa | - | - | - | - |
| 1777614386 | 11.67° C | 51% | 1022 hPa | - | - | - | - |
| 1777613902 | 11.67° C | 52% | 1022 hPa | - | - | - | - |
| 1777613376 | 11.67° C | 52% | 1022 hPa | - | - | - | - |
| 1777612862 | 11.67° C | 52% | 1022 hPa | - | - | - | - |
| 1777612276 | 11.11° C | 52% | 1022 hPa | - | - | - | - |
| 1777611707 | 10.56° C | 53% | 1022 hPa | - | - | - | - |
| 1777611196 | 10° C | 55% | 1022 hPa | - | - | - | - |
| 1777610712 | 9.44° C | 56% | 1022 hPa | - | - | - | - |
| 1777610167 | 8.33° C | 60% | 1022 hPa | - | - | - | - |
| 1777609576 | 8.33° C | 59% | 1022 hPa | - | - | - | - |
| 1777609076 | 7.78° C | 60% | 1022 hPa | - | - | - | - |
| 1777608526 | 7.78° C | 60% | 1022 hPa | - | - | - | - |
| 1777607952 | 7.78° C | 61% | 1022 hPa | - | - | - | - |
| 1777607362 | 7.78° C | 61% | 1022 hPa | - | - | - | - |
| 1777606842 | 7.78° C | 61% | 1022 hPa | - | - | - | - |
| 1777606362 | 7.22° C | 62% | 1022 hPa | - | - | - | - |
| 1777605787 | 7.78° C | 59% | 1022 hPa | - | - | - | - |
| 1777605256 | 7.78° C | 60% | 1022 hPa | - | - | - | - |
| 1777604722 | 7.78° C | 60% | 1022 hPa | - | - | - | - |
* Rain since midnight (hover to see other rain measurements)
** Current wind speed in m/s (hover to see current wind gust speed)